Albion, Pennsylvania
Current Conditions -  °F | °C
As of 6:17 PM on Saturday 25 Oct 2014 (Local Time) from KERI Reporting Station
Scattered Clouds Scattered Clouds  
Wind Chill: 61°   Ceiling: Unl
Heat Index: 61°   Visibility: 8mi
Dew Point: 52°   Wind: 15mph
Humidity: 72%   Direction: 260°W
Pressure: 29.71"   Gusts: 29mph
Location:  41.89°N, 80.36°W
Report Text: KERI 252217Z 26013G25KT 8SM SCT029 16/11 A2971 RMK AO2
Loading
Personal Weather Stations






























Interactive Weather Map New forecast layout! Learn more

10-Day Weather Forecast

Advertisements
Track Severe Weather on mobile